KGTF/GTF METAR and TAF weather

Enter ICAO airport designator
Station Type Date Time Source
KGTF METAR 2019/06/19 05:53 UTC NOAA

KGTF 190553Z 22008KT 10SM CLR 14/10 A2987 RMK AO2 SLP098 T01390100 10222 20128 58004


Station Type Date Time Source
KGTF Decoded METAR 2019/06/19 05:53 UTC NOAA

GREAT FALLS INTERNATIONAL, MT, United States (KGTF) 47-28N 111-23W 1119M
Jun 19, 2019 - 01:53 AM EDT / 2019.06.19 0553 UTC
Wind: from the SW (220 degrees) at 9 MPH (8 KT):0
Visibility: 10 mile(s):0
Sky conditions: clear
Temperature: 57.0 F (13.9 C)
Dew Point: 50.0 F (10.0 C)
Relative Humidity: 77%
Pressure (altimeter): 29.87 in. Hg (1011 hPa)
Pressure tendency: 0.01 inches (0.4 hPa) lower than three hours ago
ob: KGTF 190553Z 22008KT 10SM CLR 14/10 A2987 RMK AO2 SLP098 T01390100 10222 20128 58004
cycle: 6

Station Type Date Time Source
KGTF TAF 2019/06/19 06:42 UTC NOAA

TAF KGTF 190539Z 1906/2006 VRB06KT P6SM SCT200
FM191400 25020G30KT P6SM FEW060 SCT250

Example: see airport list